Terminal Aerodrome Forecast
Issued by NWS

Home | Current Version | Previous Version | Text Only | Print | Product List | Glossary On
Versions: 1 2 3 4 5 6 7 8 9 10 11 12 13 14 15 16 17 18 19 20 21 22 23 24 25 26 27 28 29 30 31 32 33 34 35 36 37 38 39 40 41 42 43 44 45
506
FTUS45 KPSR 310545 AAA
TAFIWA
TAF AMD
KIWA 310545Z 3106/0106 21005KT P6SM VCTS FEW120CB SCT250
     FM310700 10008KT P6SM FEW070 BKN150
      TEMPO 3107/3109 10010G18KT
     FM311800 25007KT P6SM FEW120 SCT250
     FM010500 12006KT P6SM SCT120 BKN250
      AMD LTD TO CLD VIS AND WIND TIL 311300=

USA.gov is the U.S. government's official web portal to all federal, state and local government web resources and services.